Terminal Aerodrome Forecast
Issued by NWS Raleigh/Durham, NC

Home | Current Version | Previous Version | Text Only | Print | Product List | Glossary On
Versions: 1 2 3 4 5 6 7 8 9 10 11 12 13 14 15 16 17 18 19 20 21 22 23 24 25 26 27 28 29 30 31 32 33 34 35 36 37 38 39 40 41 42 43 44
000
FTUS42 KRAH 170142 AAB
TAFFAY
TAF AMD
KFAY 170142Z 1702/1724 15005KT P6SM VCSH SCT035 BKN100
      TEMPO 1702/1703 34020G35KT 2SM TSRA OVC015CB
     FM170500 VRB05KT P6SM SCT015 BKN035
     FM171400 04006KT P6SM BKN010=

USA.gov is the U.S. government's official web portal to all federal, state and local government web resources and services.